createdAt,value
2023-03-26T00:02:29.757Z,99374.56
2023-03-26T00:04:58.092Z,99371.97
2023-03-26T00:07:28.031Z,99366.78
2023-03-26T00:09:58.145Z,99360.72
2023-03-26T00:12:26.529Z,99364.19
2023-03-26T00:14:54.700Z,99362.47
2023-03-26T00:17:23.095Z,99365.06
2023-03-26T00:19:53.709Z,99364.19
2023-03-26T00:22:23.742Z,99363.34
2023-03-26T00:24:52.063Z,99359.00
2023-03-26T00:27:20.236Z,99359.03
2023-03-26T00:29:48.902Z,99340.00
2023-03-26T00:32:17.093Z,99346.06
2023-03-26T00:34:46.227Z,99331.38
2023-03-26T00:37:15.883Z,99341.72
2023-03-26T00:39:44.686Z,99342.59
2023-03-26T00:42:14.953Z,99346.03
2023-03-26T00:44:43.342Z,99338.25
2023-03-26T00:47:11.758Z,99353.84
2023-03-26T00:49:40.395Z,99356.41
2023-03-26T00:52:08.830Z,99351.22
2023-03-26T00:54:39.169Z,99341.69
2023-03-26T00:57:10.531Z,99356.38
2023-03-26T00:59:38.948Z,99352.94
2023-03-26T01:02:07.658Z,99351.19
2023-03-26T01:04:37.687Z,99354.66
2023-03-26T01:07:11.407Z,99345.97
2023-03-26T01:09:45.173Z,99339.06
2023-03-26T01:12:17.198Z,99351.16
2023-03-26T01:14:46.365Z,99351.19
2023-03-26T01:17:15.370Z,99352.91
2023-03-26T01:19:50.029Z,99368.44
2023-03-26T01:22:21.316Z,99368.44
2023-03-26T01:24:56.347Z,99359.78
2023-03-26T01:27:36.146Z,99361.50
2023-03-26T01:30:15.370Z,99358.06
2023-03-26T01:33:03.751Z,99348.53
2023-03-26T01:35:41.958Z,99345.94
2023-03-26T01:38:23.298Z,99360.63
2023-03-26T01:41:00.172Z,99348.50
2023-03-26T01:43:36.526Z,99347.66
2023-03-26T01:46:07.812Z,99352.81
2023-03-26T01:48:38.856Z,99353.66
2023-03-26T01:51:08.980Z,99348.47
2023-03-26T01:53:41.462Z,99357.13
2023-03-26T01:56:19.361Z,99345.84
2023-03-26T01:58:59.867Z,99346.69
2023-03-26T02:01:32.645Z,99347.56
2023-03-26T02:04:08.044Z,99342.41
2023-03-26T02:06:44.311Z,99344.09
2023-03-26T02:09:16.090Z,99340.66
2023-03-26T02:11:47.985Z,99351.00
2023-03-26T02:14:16.512Z,99345.81
2023-03-26T02:16:47.153Z,99347.56
2023-03-26T02:19:21.849Z,99337.16
2023-03-26T02:21:52.074Z,99354.47
2023-03-26T02:24:21.801Z,99351.00
2023-03-26T02:26:58.175Z,99347.56
2023-03-26T02:29:27.986Z,99338.88
2023-03-26T02:31:56.430Z,99325.09
2023-03-26T02:34:24.710Z,99354.44
2023-03-26T02:36:57.219Z,99347.56
2023-03-26T02:39:26.721Z,99342.38
2023-03-26T02:42:05.279Z,99329.34
2023-03-26T02:44:40.278Z,99333.66
2023-03-26T02:47:20.402Z,99332.75
2023-03-26T02:49:54.672Z,99339.69
2023-03-26T02:52:49.117Z,99336.25
2023-03-26T02:55:17.881Z,99340.53
2023-03-26T02:57:48.844Z,99335.34
2023-03-26T03:00:22.847Z,99328.44
2023-03-26T03:03:17.341Z,99331.00
2023-03-26T03:06:11.825Z,99330.09
2023-03-26T03:08:46.581Z,99323.16
2023-03-26T03:11:34.350Z,99331.84
2023-03-26T03:14:04.664Z,99331.84
2023-03-26T03:16:34.196Z,99331.91
2023-03-26T03:19:11.288Z,99337.91
2023-03-26T03:21:41.516Z,99332.72
2023-03-26T03:24:11.656Z,99332.72
2023-03-26T03:26:48.232Z,99320.63
2023-03-26T03:29:37.865Z,99326.66
2023-03-26T03:32:27.711Z,99319.72
2023-03-26T03:35:00.858Z,99324.91
2023-03-26T03:37:30.916Z,99325.78
2023-03-26T03:40:00.717Z,99315.38
2023-03-26T03:42:32.693Z,99309.31
2023-03-26T03:45:06.080Z,99299.78
2023-03-26T03:47:53.173Z,99304.13
2023-03-26T03:50:28.546Z,99305.03
2023-03-26T03:53:19.939Z,99311.06
2023-03-26T03:55:54.050Z,99313.66
2023-03-26T03:58:28.238Z,99304.97
2023-03-26T04:01:03.106Z,99319.72
2023-03-26T04:03:54.647Z,99324.06
2023-03-26T04:06:30.421Z,99324.91
2023-03-26T04:08:58.740Z,99330.97
2023-03-26T04:11:27.672Z,99328.34
2023-03-26T04:14:18.655Z,99328.34
2023-03-26T04:17:08.574Z,99323.16
2023-03-26T04:19:39.833Z,99316.16
2023-03-26T04:22:12.005Z,99318.75
2023-03-26T04:24:54.452Z,99314.44
2023-03-26T04:27:49.703Z,99318.78
2023-03-26T04:30:27.412Z,99314.44
2023-03-26T04:33:24.991Z,99319.56
2023-03-26T04:35:54.864Z,99311.78
2023-03-26T04:38:24.170Z,99307.41
2023-03-26T04:40:54.220Z,99304.78
2023-03-26T04:43:42.647Z,99299.53
2023-03-26T04:46:21.997Z,99296.03
2023-03-26T04:48:58.105Z,99305.50
2023-03-26T04:51:35.165Z,99295.09
2023-03-26T04:54:04.505Z,99295.06
2023-03-26T04:56:45.862Z,99287.28
2023-03-26T04:59:26.153Z,99291.50
2023-03-26T05:01:56.978Z,99271.69
2023-03-26T05:04:30.393Z,99282.00
2023-03-26T05:07:00.106Z,99280.25
2023-03-26T05:09:37.917Z,99294.13
2023-03-26T05:12:14.298Z,99285.47
2023-03-26T05:15:06.335Z,99291.50
2023-03-26T05:17:52.898Z,99292.34
2023-03-26T05:20:31.699Z,99289.66
2023-03-26T05:23:00.039Z,99291.34
2023-03-26T05:25:31.737Z,99300.91
2023-03-26T05:28:02.342Z,99303.44
2023-03-26T05:30:38.385Z,99305.16
2023-03-26T05:33:07.064Z,99312.00
2023-03-26T05:35:59.664Z,99311.94
2023-03-26T05:38:30.101Z,99318.91
2023-03-26T05:41:00.755Z,99320.66
2023-03-26T05:43:28.944Z,99316.31
2023-03-26T05:46:18.175Z,99310.25
2023-03-26T05:48:47.312Z,99302.38
2023-03-26T05:51:17.463Z,99301.53
2023-03-26T05:53:57.546Z,99309.31
2023-03-26T05:56:57.072Z,99313.59
2023-03-26T05:59:43.889Z,99304.88
2023-03-26T06:02:20.950Z,99318.66
2023-03-26T06:05:09.952Z,99313.38
2023-03-26T06:07:59.600Z,99319.41
2023-03-26T06:10:34.547Z,99324.53
2023-03-26T06:13:02.763Z,99326.22
2023-03-26T06:15:31.437Z,99329.66
2023-03-26T06:18:02.599Z,99322.63
2023-03-26T06:20:37.562Z,99320.81
2023-03-26T06:23:18.413Z,99321.69
2023-03-26T06:26:05.810Z,99317.31
2023-03-26T06:28:54.336Z,99316.41
2023-03-26T06:31:45.973Z,99312.78
2023-03-26T06:34:34.430Z,99315.34
2023-03-26T06:37:02.702Z,99309.13
2023-03-26T06:39:32.924Z,99312.59
2023-03-26T06:42:16.467Z,99317.72
2023-03-26T06:45:06.059Z,99318.47
2023-03-26T06:47:53.046Z,99320.97
2023-03-26T06:50:41.622Z,99314.81
2023-03-26T06:53:14.020Z,99323.50
2023-03-26T06:55:49.715Z,99313.94
2023-03-26T06:58:56.761Z,99294.22
2023-03-26T07:01:44.484Z,99315.69
2023-03-26T07:04:31.934Z,99318.34
2023-03-26T07:07:21.676Z,99316.56
2023-03-26T07:10:09.796Z,99307.81
2023-03-26T07:12:52.291Z,99317.22
2023-03-26T07:15:39.636Z,99320.69
2023-03-26T07:18:27.205Z,99329.28
2023-03-26T07:20:56.812Z,99323.13
2023-03-26T07:23:26.764Z,99332.59
2023-03-26T07:26:24.279Z,99320.34
2023-03-26T07:29:22.262Z,99328.06
2023-03-26T07:32:25.553Z,99323.69
2023-03-26T07:35:25.633Z,99327.00
2023-03-26T07:38:34.347Z,99333.03
2023-03-26T07:41:36.152Z,99335.63
2023-03-26T07:44:36.889Z,99336.47
2023-03-26T07:47:31.570Z,99329.47
2023-03-26T07:50:18.912Z,99334.66
2023-03-26T07:53:09.462Z,99336.34
2023-03-26T07:56:15.674Z,99335.47
2023-03-26T07:59:16.115Z,99344.19
2023-03-26T08:02:43.261Z,99340.78
2023-03-26T08:05:36.125Z,99344.25
2023-03-26T08:08:17.495Z,99347.69
2023-03-26T08:11:23.195Z,99350.31
2023-03-26T08:14:12.720Z,99349.50
2023-03-26T08:16:47.924Z,99350.41
2023-03-26T08:19:40.883Z,99347.81
2023-03-26T08:22:15.525Z,99341.69
2023-03-26T08:24:54.929Z,99346.88
2023-03-26T08:27:31.331Z,99351.19
2023-03-26T08:30:06.094Z,99345.91
2023-03-26T08:32:34.790Z,99346.72
2023-03-26T08:35:05.168Z,99335.44
2023-03-26T08:37:33.454Z,99337.13
2023-03-26T08:40:01.630Z,99350.91
2023-03-26T08:43:05.444Z,99352.59
2023-03-26T08:45:53.562Z,99351.69
2023-03-26T08:48:57.793Z,99354.28
2023-03-26T08:52:02.611Z,99352.50
2023-03-26T08:54:50.396Z,99351.59
2023-03-26T08:58:01.026Z,99352.41
2023-03-26T09:01:03.999Z,99360.38
2023-03-26T09:03:59.847Z,99352.69
2023-03-26T09:06:54.344Z,99347.69
2023-03-26T09:10:15.882Z,99350.53
2023-03-26T09:13:22.637Z,99363.88
2023-03-26T09:16:31.627Z,99360.78
2023-03-26T09:19:32.288Z,99361.81
2023-03-26T09:22:33.131Z,99354.16
2023-03-26T09:25:26.411Z,99350.81
2023-03-26T09:28:31.721Z,99353.50
2023-03-26T09:31:23.613Z,99350.91
2023-03-26T09:33:59.446Z,99359.56
2023-03-26T09:36:45.453Z,99359.56
2023-03-26T09:39:24.690Z,99364.84
2023-03-26T09:42:06.822Z,99364.84
2023-03-26T09:45:22.804Z,99369.19
2023-03-26T09:48:34.600Z,99353.53
2023-03-26T09:51:22.740Z,99368.31
2023-03-26T09:54:11.709Z,99358.06
2023-03-26T09:56:53.822Z,99371.94
2023-03-26T09:59:54.418Z,99373.63
2023-03-26T10:02:47.749Z,99367.50
2023-03-26T10:05:34.762Z,99366.66
2023-03-26T10:08:18.598Z,99364.97
2023-03-26T10:10:54.961Z,99364.91
2023-03-26T10:13:31.891Z,99370.00
2023-03-26T10:16:21.389Z,99382.09
2023-03-26T10:19:04.235Z,99381.19
2023-03-26T10:21:47.004Z,99377.59
2023-03-26T10:24:37.714Z,99366.22
2023-03-26T10:27:23.070Z,99376.44
2023-03-26T10:30:19.166Z,99376.31
2023-03-26T10:32:58.988Z,99384.25
2023-03-26T10:35:41.413Z,99381.84
2023-03-26T10:38:19.798Z,99382.00
2023-03-26T10:41:00.651Z,99388.94
2023-03-26T10:44:05.118Z,99387.13
2023-03-26T10:46:52.360Z,99387.97
2023-03-26T10:49:55.978Z,99390.63
2023-03-26T10:52:30.905Z,99393.28
2023-03-26T10:55:12.027Z,99388.13
2023-03-26T10:57:44.593Z,99384.63
2023-03-26T11:00:24.841Z,99386.28
2023-03-26T11:03:12.995Z,99371.44
2023-03-26T11:05:50.369Z,99381.78
2023-03-26T11:08:31.675Z,99386.13
2023-03-26T11:11:13.236Z,99377.53
2023-03-26T11:13:52.859Z,99388.78
2023-03-26T11:16:25.711Z,99387.97
2023-03-26T11:19:00.603Z,99388.84
2023-03-26T11:21:37.118Z,99388.84
2023-03-26T11:24:36.218Z,99386.50
2023-03-26T11:27:14.638Z,99395.31
2023-03-26T11:29:52.260Z,99391.22
2023-03-26T11:32:23.871Z,99397.25
2023-03-26T11:35:00.957Z,99393.72
2023-03-26T11:37:34.965Z,99359.13
2023-03-26T11:40:08.331Z,99392.78
2023-03-26T11:42:36.746Z,99388.50
2023-03-26T11:45:07.877Z,99384.13
2023-03-26T11:47:43.900Z,99391.13
2023-03-26T11:50:18.082Z,99389.47
2023-03-26T11:52:48.021Z,99399.03
2023-03-26T11:55:16.921Z,99392.97
2023-03-26T11:57:53.692Z,99399.13
2023-03-26T12:00:27.543Z,99397.44
2023-03-26T12:02:58.722Z,99398.28
2023-03-26T12:05:33.606Z,99403.56
2023-03-26T12:08:07.776Z,99396.66
2023-03-26T12:10:38.890Z,99400.97
2023-03-26T12:13:31.228Z,99398.53
2023-03-26T12:16:00.938Z,99401.25
2023-03-26T12:18:29.820Z,99407.44
2023-03-26T12:21:08.959Z,99410.88
2023-03-26T12:23:58.059Z,99409.97
2023-03-26T12:26:39.592Z,99402.13
2023-03-26T12:29:11.099Z,99400.47
2023-03-26T12:31:49.824Z,99404.91
2023-03-26T12:34:20.701Z,99417.00
2023-03-26T12:36:52.514Z,99404.00
2023-03-26T12:40:10.485Z,99403.16
2023-03-26T12:44:44.020Z,99404.00
2023-03-26T12:45:22.776Z,99391.84
2023-03-26T12:47:59.993Z,99398.72
2023-03-26T12:50:38.084Z,99395.25
2023-03-26T12:53:27.716Z,99410.00
2023-03-26T12:56:07.597Z,99403.06
2023-03-26T12:59:00.175Z,99409.97
2023-03-26T13:01:39.991Z,99408.28
2023-03-26T13:04:37.554Z,99405.69
2023-03-26T13:07:15.883Z,99397.91
2023-03-26T13:09:56.944Z,99401.34
2023-03-26T13:12:41.006Z,99409.13
2023-03-26T13:15:23.718Z,99398.78
2023-03-26T13:18:04.422Z,99409.28
2023-03-26T13:20:46.007Z,99409.41
2023-03-26T13:23:26.800Z,99405.13
2023-03-26T13:26:15.581Z,99413.00
2023-03-26T13:29:02.990Z,99415.63
2023-03-26T13:31:40.710Z,99415.63
2023-03-26T13:34:19.618Z,99413.84
2023-03-26T13:50:23.885Z,99416.38
2023-03-26T13:52:57.439Z,99412.19
2023-03-26T13:55:31.896Z,99410.56
2023-03-26T13:58:05.050Z,99400.19
2023-03-26T14:00:48.949Z,99416.63
2023-03-26T14:03:22.998Z,99402.78
2023-03-26T14:05:56.753Z,99413.16
2023-03-26T14:08:32.387Z,99413.16
2023-03-26T14:11:11.091Z,99413.22
2023-03-26T14:13:46.115Z,99417.50
2023-03-26T14:16:20.138Z,99414.91
2023-03-26T14:18:53.566Z,99419.25
2023-03-26T14:21:54.092Z,99414.91
2023-03-26T14:24:42.109Z,99415.81
2023-03-26T14:27:39.019Z,99412.34
2023-03-26T14:30:31.284Z,99409.81
2023-03-26T14:33:14.582Z,99422.78
2023-03-26T14:36:01.444Z,99421.94
2023-03-26T14:38:59.348Z,99408.94
2023-03-26T14:41:32.789Z,99420.16
2023-03-26T14:44:31.422Z,99420.16
2023-03-26T14:47:18.686Z,99403.75
2023-03-26T14:50:20.255Z,99418.44
2023-03-26T14:52:51.019Z,99420.22
2023-03-26T14:55:49.498Z,99421.09
2023-03-26T14:58:57.148Z,99423.72
2023-03-26T15:01:27.230Z,99421.13
2023-03-26T15:04:30.400Z,99425.50
2023-03-26T15:07:37.549Z,99425.50
2023-03-26T15:10:57.167Z,99427.22
2023-03-26T15:13:55.757Z,99427.22
2023-03-26T15:16:56.919Z,99416.00
2023-03-26T15:19:52.110Z,99425.50
2023-03-26T15:23:10.050Z,99422.06
2023-03-26T15:26:03.985Z,99422.03
2023-03-26T15:29:04.682Z,99418.63
2023-03-26T15:32:25.998Z,99422.06
2023-03-26T15:35:26.513Z,99430.75
2023-03-26T15:38:17.794Z,99432.47
2023-03-26T15:41:02.850Z,99413.47
2023-03-26T15:44:23.720Z,99422.97
2023-03-26T15:47:03.113Z,99432.50
2023-03-26T15:49:41.953Z,99432.50
2023-03-26T15:52:25.269Z,99437.69
2023-03-26T15:55:01.500Z,99434.22
2023-03-26T15:57:36.303Z,99439.41
2023-03-26T16:00:22.822Z,99430.75
2023-03-26T16:03:26.029Z,99435.06
2023-03-26T16:06:20.384Z,99440.25
2023-03-26T16:08:57.693Z,99438.50
2023-03-26T16:11:54.843Z,99442.84
2023-03-26T16:14:37.142Z,99460.13
2023-03-26T16:17:08.200Z,99455.81
2023-03-26T16:19:53.297Z,99456.66
2023-03-26T16:22:43.717Z,99463.53
2023-03-26T16:25:30.824Z,99461.78
2023-03-26T16:28:22.712Z,99459.16
2023-03-26T16:31:36.028Z,99463.47
2023-03-26T16:34:42.584Z,99466.91
2023-03-26T16:37:36.916Z,99470.34
2023-03-26T16:40:34.164Z,99476.34
2023-03-26T16:43:13.590Z,99474.63
2023-03-26T16:45:51.743Z,99478.06
2023-03-26T16:48:30.404Z,99484.09
2023-03-26T16:51:10.308Z,99485.81
2023-03-26T16:53:46.704Z,99490.16
2023-03-26T16:56:25.144Z,99496.16
2023-03-26T16:58:56.257Z,99493.53
2023-03-26T17:01:35.784Z,99499.56
2023-03-26T17:04:10.613Z,99498.69
2023-03-26T17:07:02.036Z,99499.53
2023-03-26T17:09:39.993Z,99499.56
2023-03-26T17:12:18.789Z,99495.31
2023-03-26T17:15:06.018Z,99493.59
2023-03-26T17:18:01.786Z,99501.34
2023-03-26T17:20:38.614Z,99492.75
2023-03-26T17:23:24.048Z,99491.03
2023-03-26T17:26:05.013Z,99481.50
2023-03-26T17:29:10.763Z,99484.06
2023-03-26T17:31:53.286Z,99483.22
2023-03-26T17:34:57.197Z,99471.09
2023-03-26T17:37:38.340Z,99490.97
2023-03-26T17:40:47.776Z,99480.56
2023-03-26T17:43:40.697Z,99483.09
2023-03-26T17:46:35.130Z,99479.66
2023-03-26T17:49:09.693Z,99469.19
2023-03-26T17:51:45.555Z,99478.69
2023-03-26T17:54:23.400Z,99478.66
2023-03-26T17:56:54.394Z,99485.53
2023-03-26T17:59:27.635Z,99488.16
2023-03-26T18:02:00.257Z,99493.34
2023-03-26T18:04:35.859Z,99486.47
2023-03-26T18:07:31.868Z,99480.44
2023-03-26T18:10:19.227Z,99482.19
2023-03-26T18:13:15.368Z,99486.53
2023-03-26T18:15:58.333Z,99480.47
2023-03-26T18:18:33.378Z,99483.94
2023-03-26T18:21:07.147Z,99484.81
2023-03-26T18:23:38.928Z,99483.09
2023-03-26T18:26:15.129Z,99485.66
2023-03-26T18:28:45.534Z,99482.22
2023-03-26T18:31:20.055Z,99488.25
2023-03-26T18:33:50.567Z,99483.94
2023-03-26T18:36:19.701Z,99483.88
2023-03-26T18:38:48.990Z,99489.03
2023-03-26T18:41:28.404Z,99493.31
2023-03-26T18:43:57.529Z,99485.53
2023-03-26T18:46:27.201Z,99489.81
2023-03-26T18:48:57.041Z,99494.09
2023-03-26T18:51:28.458Z,99476.81
2023-03-26T18:54:00.802Z,99501.00
2023-03-26T18:56:33.824Z,99495.84
2023-03-26T18:59:04.098Z,99489.78
2023-03-26T19:01:34.446Z,99494.91
2023-03-26T19:04:06.351Z,99490.59
2023-03-26T19:06:39.999Z,99500.06
2023-03-26T19:09:20.075Z,99492.31
2023-03-26T19:12:07.262Z,99491.44
2023-03-26T19:14:51.252Z,99489.72
2023-03-26T19:17:19.829Z,99492.31
2023-03-26T19:19:48.060Z,99484.53
2023-03-26T19:22:18.134Z,99481.06
2023-03-26T19:24:47.326Z,99478.47
2023-03-26T19:27:17.094Z,99483.66
2023-03-26T19:29:45.738Z,99460.31
2023-03-26T19:32:22.558Z,99475.06
2023-03-26T19:34:53.501Z,99481.97
2023-03-26T19:37:23.971Z,99481.97
2023-03-26T19:39:56.010Z,99479.34
2023-03-26T19:42:43.434Z,99481.84
2023-03-26T19:45:18.794Z,99481.84
2023-03-26T19:48:00.128Z,99464.56
2023-03-26T19:50:38.740Z,99470.63
2023-03-26T19:53:17.689Z,99462.88
2023-03-26T19:55:57.492Z,99474.94
2023-03-26T19:58:28.700Z,99469.75
2023-03-26T20:00:57.151Z,99478.38
2023-03-26T20:03:29.600Z,99460.25
2023-03-26T20:05:58.249Z,99458.53
2023-03-26T20:08:27.980Z,99461.06
2023-03-26T20:10:58.664Z,99455.06
2023-03-26T20:13:30.196Z,99448.16
2023-03-26T20:16:05.792Z,99452.41
2023-03-26T20:18:35.226Z,99456.66
2023-03-26T20:21:03.757Z,99466.13
2023-03-26T20:23:32.083Z,99456.69
2023-03-26T20:26:00.315Z,99464.41
2023-03-26T20:28:35.276Z,99461.91
2023-03-26T20:31:08.300Z,99470.53
2023-03-26T20:33:36.671Z,99471.41
2023-03-26T20:36:06.910Z,99461.03
2023-03-26T20:38:39.469Z,99466.06
2023-03-26T20:41:10.780Z,99450.47
2023-03-26T20:43:40.424Z,99464.31
2023-03-26T20:46:11.607Z,99472.91
2023-03-26T20:48:40.066Z,99468.63
2023-03-26T20:51:10.550Z,99472.94
2023-03-26T20:53:41.683Z,99466.00
2023-03-26T20:56:13.721Z,99467.66
2023-03-26T20:58:44.672Z,99477.09
2023-03-26T21:01:14.195Z,99469.34
2023-03-26T21:03:44.736Z,99468.56
2023-03-26T21:06:14.509Z,99465.09
2023-03-26T21:08:44.923Z,99464.19
2023-03-26T21:11:26.587Z,99465.97
2023-03-26T21:14:02.428Z,99469.44
2023-03-26T21:16:31.596Z,99471.97
2023-03-26T21:19:00.247Z,99471.16
2023-03-26T21:21:43.900Z,99460.72
2023-03-26T21:24:23.006Z,99474.53
2023-03-26T21:26:57.569Z,99474.53
2023-03-26T21:29:28.013Z,99472.81
2023-03-26T21:31:57.294Z,99468.41
2023-03-26T21:34:27.426Z,99472.78
2023-03-26T21:36:56.303Z,99473.63
2023-03-26T21:39:25.039Z,99472.78
2023-03-26T21:42:05.232Z,99468.38
2023-03-26T21:44:36.532Z,99470.13
2023-03-26T21:47:09.200Z,99452.88
2023-03-26T21:49:38.942Z,99463.25
2023-03-26T21:52:07.819Z,99452.91
2023-03-26T21:54:37.122Z,99453.75
2023-03-26T21:57:28.088Z,99455.50
2023-03-26T22:00:14.931Z,99450.31
2023-03-26T22:03:07.032Z,99450.28
2023-03-26T22:05:40.586Z,99444.25
2023-03-26T22:08:17.971Z,99449.41
2023-03-26T22:10:47.610Z,99452.00
2023-03-26T22:13:15.875Z,99452.88
2023-03-26T22:15:46.222Z,99458.03
2023-03-26T22:18:15.245Z,99458.91
2023-03-26T22:20:46.697Z,99447.72
2023-03-26T22:23:15.499Z,99453.78
2023-03-26T22:25:43.942Z,99448.59
2023-03-26T22:28:12.356Z,99452.00
2023-03-26T22:30:40.913Z,99448.59
2023-03-26T22:33:12.125Z,99453.75
2023-03-26T22:35:43.234Z,99448.53
2023-03-26T22:38:12.631Z,99450.25
2023-03-26T22:40:40.856Z,99437.31
2023-03-26T22:43:09.547Z,99442.50
2023-03-26T22:45:38.060Z,99431.28
2023-03-26T22:48:06.415Z,99429.56
2023-03-26T22:50:36.852Z,99424.34
2023-03-26T22:53:05.109Z,99438.94
2023-03-26T22:55:33.588Z,99456.13
2023-03-26T22:58:01.950Z,99455.31
2023-03-26T23:00:30.729Z,99460.53
2023-03-26T23:03:00.576Z,99448.47
2023-03-26T23:05:29.636Z,99449.31
2023-03-26T23:07:59.350Z,99447.56
2023-03-26T23:10:30.200Z,99450.19
2023-03-26T23:12:58.362Z,99446.69
2023-03-26T23:15:26.937Z,99448.47
2023-03-26T23:17:55.472Z,99448.47
2023-03-26T23:20:23.875Z,99437.28
2023-03-26T23:22:52.589Z,99443.28
2023-03-26T23:25:22.434Z,99441.56
2023-03-26T23:27:50.912Z,99442.41
2023-03-26T23:30:19.396Z,99441.56
2023-03-26T23:32:48.123Z,99448.47
2023-03-26T23:35:16.462Z,99446.78
2023-03-26T23:37:44.762Z,99449.34
2023-03-26T23:40:14.385Z,99443.31
2023-03-26T23:42:44.145Z,99434.66
2023-03-26T23:45:13.408Z,99445.09
2023-03-26T23:47:42.858Z,99437.28
2023-03-26T23:50:13.049Z,99437.16
2023-03-26T23:52:41.392Z,99450.09
2023-03-26T23:55:10.241Z,99450.06
2023-03-26T23:57:38.477Z,99448.31
